Council, Idaho
Current Conditions -  °F | °C
As of 2:37 PM on Friday 19 Dec 2014 (Local Time) from KMYL Reporting Station
Light Snow Light Snow  
Wind Chill: 24°   Ceiling: 2600
Heat Index: 33°   Visibility: 4mi
Dew Point: 31°   Wind: 12mph
Humidity: 92%   Direction: 160°SSE
Pressure: 29.96"   Gusts: NA
Location:  44.73°N, 116.44°W
Report Text: KMYL 192137Z AUTO 16010KT 4SM -SN BR FEW004 SCT021 OVC026 01/M01 A2996 RMK AO2 P0002 T00061006
Loading
Personal Weather Stations






























Interactive Weather Map New forecast layout! Learn more

10-Day Weather Forecast

Advertisements
Track Severe Weather on mobile